createdAt,value
2018-02-01T00:01:06.137Z,0
2018-02-01T00:02:15.826Z,0
2018-02-01T00:03:25.516Z,0
2018-02-01T00:04:35.471Z,0
2018-02-01T00:05:45.416Z,0
2018-02-01T00:06:55.364Z,0
2018-02-01T00:08:05.316Z,0
2018-02-01T00:09:15.263Z,0
2018-02-01T00:10:24.962Z,0
2018-02-01T00:11:34.916Z,0
2018-02-01T00:12:44.621Z,0
2018-02-01T00:13:54.576Z,0
2018-02-01T00:15:04.276Z,0
2018-02-01T00:16:14.232Z,0
2018-02-01T00:17:24.193Z,0
2018-02-01T00:18:33.625Z,0
2018-02-01T00:19:43.579Z,0
2018-02-01T00:20:53.519Z,0
2018-02-01T00:22:03.472Z,0
2018-02-01T00:23:13.154Z,0
2018-02-01T00:24:23.099Z,0
2018-02-01T00:25:32.800Z,0
2018-02-01T00:26:42.500Z,0
2018-02-01T00:27:52.460Z,0
2018-02-01T00:29:02.159Z,0
2018-02-01T00:30:11.875Z,0
2018-02-01T00:31:22.063Z,0
2018-02-01T00:32:32.005Z,0
2018-02-01T00:33:41.977Z,0
2018-02-01T00:34:51.923Z,0
2018-02-01T00:36:01.859Z,0
2018-02-01T00:37:11.544Z,0
2018-02-01T00:38:21.499Z,0
2018-02-01T00:39:31.184Z,0
2018-02-01T00:40:41.174Z,0
2018-02-01T00:41:50.867Z,0
2018-02-01T00:43:00.561Z,0
2018-02-01T00:44:10.244Z,0
2018-02-01T00:45:20.195Z,0
2018-02-01T00:46:29.886Z,0
2018-02-01T00:47:39.828Z,0
2018-02-01T00:48:49.514Z,0
2018-02-01T00:49:59.460Z,0
2018-02-01T00:51:09.407Z,0
2018-02-01T00:52:19.345Z,0
2018-02-01T00:53:29.287Z,0
2018-02-01T00:54:38.465Z,0
2018-02-01T00:55:48.411Z,0
2018-02-01T00:56:58.356Z,0
2018-02-01T00:58:08.307Z,0
2018-02-01T00:59:18.264Z,0
2018-02-01T01:00:27.959Z,0
2018-02-01T01:01:37.901Z,0
2018-02-01T01:02:47.589Z,0
2018-02-01T01:03:57.270Z,0
2018-02-01T01:05:07.225Z,0
2018-02-01T01:06:16.914Z,0
2018-02-01T01:07:26.852Z,0
2018-02-01T01:08:36.794Z,0
2018-02-01T01:09:46.770Z,0
2018-02-01T01:10:56.712Z,0
2018-02-01T01:12:06.398Z,0
2018-02-01T01:13:16.344Z,0
2018-02-01T01:14:26.042Z,0
2018-02-01T01:15:36.009Z,0
2018-02-01T01:16:45.692Z,0
2018-02-01T01:17:55.130Z,0
2018-02-01T01:19:04.857Z,0
2018-02-01T01:20:14.797Z,0
2018-02-01T01:21:24.486Z,0
2018-02-01T01:22:34.168Z,0
2018-02-01T01:23:44.110Z,0
2018-02-01T01:24:53.800Z,0
2018-02-01T01:26:03.488Z,0
2018-02-01T01:27:13.451Z,0
2018-02-01T01:28:23.419Z,0
2018-02-01T01:29:33.113Z,0
2018-02-01T01:30:42.806Z,0
2018-02-01T01:31:51.981Z,0
2018-02-01T01:33:01.925Z,0
2018-02-01T01:34:11.616Z,0
2018-02-01T01:35:21.806Z,0
2018-02-01T01:36:31.231Z,0
2018-02-01T01:37:41.171Z,0
2018-02-01T01:38:51.104Z,0
2018-02-01T01:40:00.811Z,0
2018-02-01T01:41:10.749Z,0
2018-02-01T01:42:20.434Z,0
2018-02-01T01:43:30.371Z,0
2018-02-01T01:44:40.308Z,0
2018-02-01T01:45:50.310Z,0
2018-02-01T01:47:00.000Z,0
2018-02-01T01:48:09.702Z,0
2018-02-01T01:49:19.645Z,0
2018-02-01T01:50:29.592Z,0
2018-02-01T01:51:39.528Z,0
2018-02-01T01:52:49.464Z,0
2018-02-01T01:53:59.399Z,0
2018-02-01T01:55:09.354Z,0
2018-02-01T01:56:19.041Z,0
2018-02-01T01:57:28.220Z,0
2018-02-01T01:58:37.907Z,0
2018-02-01T01:59:47.858Z,0
2018-02-01T02:00:57.295Z,0
2018-02-01T02:02:07.248Z,0
2018-02-01T02:03:17.241Z,0
2018-02-01T02:04:26.930Z,0
2018-02-01T02:05:36.878Z,0
2018-02-01T02:06:46.568Z,0
2018-02-01T02:07:56.259Z,0
2018-02-01T02:09:05.947Z,0
2018-02-01T02:10:15.630Z,0
2018-02-01T02:11:25.574Z,0
2018-02-01T02:12:35.514Z,0
2018-02-01T02:13:45.194Z,0
2018-02-01T02:14:54.884Z,0
2018-02-01T02:16:04.830Z,0
2018-02-01T02:17:14.785Z,0
2018-02-01T02:18:24.503Z,0
2018-02-01T02:19:34.455Z,0
2018-02-01T02:20:44.131Z,0
2018-02-01T02:21:54.114Z,0
2018-02-01T02:23:04.060Z,0
2018-02-01T02:24:14.010Z,0
2018-02-01T02:25:23.705Z,0
2018-02-01T02:26:33.703Z,0
2018-02-01T02:27:43.656Z,0
2018-02-01T02:28:53.654Z,0
2018-02-01T02:30:03.612Z,0
2018-02-01T02:31:13.557Z,0
2018-02-01T02:32:23.255Z,0
2018-02-01T02:33:32.697Z,0
2018-02-01T02:34:42.380Z,0
2018-02-01T02:35:52.384Z,0
2018-02-01T02:37:02.332Z,0
2018-02-01T02:38:12.032Z,0
2018-02-01T02:39:21.713Z,0
2018-02-01T02:40:31.668Z,0
2018-02-01T02:41:41.353Z,0
2018-02-01T02:42:51.342Z,0
2018-02-01T02:44:01.296Z,0
2018-02-01T02:45:10.977Z,0
2018-02-01T02:46:20.682Z,0
2018-02-01T02:47:30.367Z,0
2018-02-01T02:48:40.324Z,0
2018-02-01T02:49:50.025Z,0
2018-02-01T02:50:59.981Z,0
2018-02-01T02:52:10.106Z,0
2018-02-01T02:53:20.070Z,0
2018-02-01T02:54:30.024Z,0
2018-02-01T02:55:39.961Z,0
2018-02-01T02:56:49.908Z,0
2018-02-01T02:57:59.856Z,0
2018-02-01T02:59:09.828Z,0
2018-02-01T03:00:19.782Z,0
2018-02-01T03:01:29.727Z,0
2018-02-01T03:02:39.418Z,0
2018-02-01T03:03:49.363Z,0
2018-02-01T03:04:59.044Z,0
2018-02-01T03:06:09.004Z,0
2018-02-01T03:07:18.691Z,0
2018-02-01T03:08:28.640Z,0
2018-02-01T03:09:38.592Z,0
2018-02-01T03:10:48.530Z,0
2018-02-01T03:11:58.468Z,0
2018-02-01T03:13:07.905Z,0
2018-02-01T03:14:17.580Z,0
2018-02-01T03:15:27.513Z,0
2018-02-01T03:16:36.697Z,0
2018-02-01T03:17:46.416Z,0
2018-02-01T03:18:56.106Z,0
2018-02-01T03:20:06.062Z,0
2018-02-01T03:21:16.000Z,0
2018-02-01T03:22:25.936Z,0
2018-02-01T03:23:35.623Z,0
2018-02-01T03:24:45.583Z,0
2018-02-01T03:25:55.288Z,0
2018-02-01T03:27:05.238Z,0
2018-02-01T03:28:15.176Z,0
2018-02-01T03:29:25.110Z,0
2018-02-01T03:30:34.858Z,0
2018-02-01T03:31:44.794Z,0
2018-02-01T03:32:54.749Z,0
2018-02-01T03:34:04.710Z,0
2018-02-01T03:35:14.145Z,0
2018-02-01T03:36:23.573Z,0
2018-02-01T03:37:33.768Z,0
2018-02-01T03:38:43.458Z,0
2018-02-01T03:39:53.395Z,0
2018-02-01T03:41:03.342Z,0
2018-02-01T03:42:13.302Z,0
2018-02-01T03:43:22.730Z,0
2018-02-01T03:44:32.677Z,0
2018-02-01T03:45:42.365Z,0
2018-02-01T03:46:52.315Z,0
2018-02-01T03:48:02.254Z,0
2018-02-01T03:49:12.203Z,0
2018-02-01T03:50:22.194Z,0
2018-02-01T03:51:31.885Z,0
2018-02-01T03:52:41.824Z,0
2018-02-01T03:53:51.766Z,0
2018-02-01T03:55:01.441Z,0
2018-02-01T03:56:11.125Z,0
2018-02-01T03:57:21.073Z,0
2018-02-01T03:58:30.761Z,0
2018-02-01T03:59:40.457Z,0
2018-02-01T04:00:50.404Z,0
2018-02-01T04:02:00.353Z,0
2018-02-01T04:03:10.307Z,0
2018-02-01T04:04:20.251Z,0
2018-02-01T04:05:30.192Z,0
2018-02-01T04:06:40.134Z,0
2018-02-01T04:07:49.809Z,0
2018-02-01T04:08:59.755Z,0
2018-02-01T04:10:09.699Z,0
2018-02-01T04:11:19.375Z,0
2018-02-01T04:12:29.055Z,0
2018-02-01T04:13:38.737Z,0
2018-02-01T04:14:48.679Z,0
2018-02-01T04:15:58.622Z,0
2018-02-01T04:17:08.583Z,0
2018-02-01T04:18:18.011Z,0
2018-02-01T04:19:27.948Z,0
2018-02-01T04:20:37.910Z,0
2018-02-01T04:21:47.859Z,0
2018-02-01T04:22:57.797Z,0
2018-02-01T04:24:07.744Z,0
2018-02-01T04:25:17.675Z,0
2018-02-01T04:26:27.612Z,0
2018-02-01T04:27:37.556Z,0
2018-02-01T04:28:47.493Z,0
2018-02-01T04:29:57.689Z,0
2018-02-01T04:31:07.367Z,0
2018-02-01T04:32:17.310Z,0
2018-02-01T04:33:27.247Z,0
2018-02-01T04:34:36.939Z,0
2018-02-01T04:35:46.877Z,0
2018-02-01T04:36:56.564Z,0
2018-02-01T04:38:06.512Z,0
2018-02-01T04:39:16.478Z,0
2018-02-01T04:40:26.168Z,0
2018-02-01T04:41:35.863Z,0
2018-02-01T04:42:45.813Z,0
2018-02-01T04:43:55.755Z,0
2018-02-01T04:45:05.441Z,0
2018-02-01T04:46:15.386Z,0
2018-02-01T04:47:25.066Z,0
2018-02-01T04:48:34.763Z,0
2018-02-01T04:49:44.704Z,0
2018-02-01T04:50:54.637Z,0
2018-02-01T04:52:04.324Z,0
2018-02-01T04:53:14.016Z,0
2018-02-01T04:54:23.967Z,0
2018-02-01T04:55:33.911Z,0
2018-02-01T04:56:43.338Z,0
2018-02-01T04:57:53.020Z,0
2018-02-01T04:59:02.957Z,0
2018-02-01T05:00:12.641Z,0
2018-02-01T05:01:22.326Z,0
2018-02-01T05:02:32.268Z,0
2018-02-01T05:03:41.959Z,0
2018-02-01T05:04:51.901Z,0
2018-02-01T05:06:01.851Z,0
2018-02-01T05:07:11.536Z,0
2018-02-01T05:08:21.490Z,0
2018-02-01T05:09:31.422Z,0
2018-02-01T05:10:41.358Z,0
2018-02-01T05:11:51.297Z,0
2018-02-01T05:13:01.245Z,0
2018-02-01T05:14:11.195Z,0
2018-02-01T05:15:20.892Z,0
2018-02-01T05:16:30.323Z,0
2018-02-01T05:17:40.257Z,0
2018-02-01T05:18:50.007Z,0
2018-02-01T05:19:59.987Z,0
2018-02-01T05:21:09.686Z,0
2018-02-01T05:22:19.625Z,0
2018-02-01T05:23:29.306Z,0
2018-02-01T05:24:39.261Z,0
2018-02-01T05:25:49.203Z,0
2018-02-01T05:26:58.891Z,0
2018-02-01T05:28:08.580Z,0
2018-02-01T05:29:18.281Z,0
2018-02-01T05:30:28.223Z,0
2018-02-01T05:31:37.925Z,0
2018-02-01T05:32:47.622Z,0
2018-02-01T05:33:57.567Z,0
2018-02-01T05:35:07.257Z,0
2018-02-01T05:36:17.196Z,0
2018-02-01T05:37:26.889Z,0
2018-02-01T05:38:36.831Z,0
2018-02-01T05:39:46.772Z,0
2018-02-01T05:40:56.717Z,0
2018-02-01T05:42:06.652Z,0
2018-02-01T05:43:16.601Z,0
2018-02-01T05:44:26.298Z,0
2018-02-01T05:45:36.241Z,0
2018-02-01T05:46:46.211Z,0
2018-02-01T05:47:55.909Z,0
2018-02-01T05:49:05.864Z,0
2018-02-01T05:50:15.550Z,0
2018-02-01T05:51:25.810Z,0
2018-02-01T05:52:35.512Z,0
2018-02-01T05:53:45.466Z,0
2018-02-01T05:54:55.416Z,0
2018-02-01T05:56:05.374Z,0
2018-02-01T05:57:15.616Z,0
2018-02-01T05:58:25.052Z,0
2018-02-01T05:59:35.002Z,0
2018-02-01T06:00:44.949Z,0
2018-02-01T06:01:54.638Z,0
2018-02-01T06:03:04.590Z,0
2018-02-01T06:04:14.556Z,0
2018-02-01T06:05:24.487Z,0
2018-02-01T06:06:34.187Z,0
2018-02-01T06:07:44.125Z,0
2018-02-01T06:08:53.289Z,0
2018-02-01T06:10:02.984Z,0
2018-02-01T06:11:12.686Z,0
2018-02-01T06:12:22.112Z,0
2018-02-01T06:13:32.068Z,0
2018-02-01T06:14:42.019Z,0
2018-02-01T06:15:51.969Z,0
2018-02-01T06:17:01.915Z,0
2018-02-01T06:18:11.870Z,0
2018-02-01T06:19:21.801Z,0
2018-02-01T06:20:31.239Z,0
2018-02-01T06:21:41.173Z,0
2018-02-01T06:22:50.856Z,0
2018-02-01T06:24:00.798Z,0
2018-02-01T06:25:10.974Z,0
2018-02-01T06:26:21.168Z,0
2018-02-01T06:27:31.127Z,0
2018-02-01T06:28:41.064Z,0
2018-02-01T06:29:51.009Z,0
2018-02-01T06:31:00.952Z,0
2018-02-01T06:32:10.894Z,0
2018-02-01T06:33:20.322Z,0
2018-02-01T06:34:30.275Z,0
2018-02-01T06:35:40.219Z,0
2018-02-01T06:36:50.176Z,0
2018-02-01T06:38:00.128Z,0
2018-02-01T06:39:10.071Z,0
2018-02-01T06:40:19.794Z,0
2018-02-01T06:41:29.755Z,5
2018-02-01T06:42:39.696Z,5
2018-02-01T06:43:49.630Z,5
2018-02-01T06:44:59.569Z,5
2018-02-01T06:46:09.267Z,5
2018-02-01T06:47:19.236Z,10
2018-02-01T06:48:29.178Z,10
2018-02-01T06:49:39.121Z,10
2018-02-01T06:50:49.064Z,10
2018-02-01T06:51:59.019Z,15
2018-02-01T06:53:09.014Z,15
2018-02-01T06:54:18.716Z,15
2018-02-01T06:55:28.984Z,20
2018-02-01T06:56:38.926Z,20
2018-02-01T06:57:48.869Z,20
2018-02-01T06:58:58.819Z,25
2018-02-01T07:00:08.790Z,25
2018-02-01T07:01:18.478Z,25
2018-02-01T07:02:28.162Z,30
2018-02-01T07:03:38.132Z,30
2018-02-01T07:04:47.819Z,35
2018-02-01T07:05:57.497Z,35
2018-02-01T07:07:07.439Z,40
2018-02-01T07:08:17.132Z,45
2018-02-01T07:09:26.830Z,45
2018-02-01T07:10:36.521Z,50
2018-02-01T07:11:46.578Z,50
2018-02-01T07:12:56.262Z,50
2018-02-01T07:14:06.275Z,55
2018-02-01T07:15:15.969Z,55
2018-02-01T07:16:26.191Z,60
2018-02-01T07:17:36.173Z,65
2018-02-01T07:18:46.145Z,70
2018-02-01T07:19:55.875Z,70
2018-02-01T07:21:05.836Z,70
2018-02-01T07:22:15.844Z,75
2018-02-01T07:23:25.795Z,75
2018-02-01T07:24:36.099Z,75
2018-02-01T07:25:45.870Z,75
2018-02-01T07:26:55.819Z,75
2018-02-01T07:28:05.239Z,80
2018-02-01T07:29:15.066Z,85
2018-02-01T07:30:25.055Z,85
2018-02-01T07:31:35.073Z,85
2018-02-01T07:32:44.802Z,85
2018-02-01T07:33:54.866Z,85
2018-02-01T07:35:04.861Z,90
2018-02-01T07:36:14.597Z,90
2018-02-01T07:37:24.296Z,90
2018-02-01T07:38:34.003Z,90
2018-02-01T07:39:43.710Z,90
2018-02-01T07:40:53.662Z,100
2018-02-01T07:42:03.344Z,95
2018-02-01T07:43:13.027Z,100
2018-02-01T07:44:22.459Z,110
2018-02-01T07:45:32.415Z,115
2018-02-01T07:46:42.373Z,115
2018-02-01T07:47:52.345Z,120
2018-02-01T07:49:01.787Z,125
2018-02-01T07:50:11.742Z,130
2018-02-01T07:51:21.700Z,130
2018-02-01T07:52:31.399Z,130
2018-02-01T07:53:41.437Z,135
2018-02-01T07:54:51.578Z,135
2018-02-01T07:56:01.302Z,140
2018-02-01T07:57:11.264Z,140
2018-02-01T07:58:20.980Z,145
2018-02-01T07:59:30.672Z,145
2018-02-01T08:00:40.356Z,155
2018-02-01T08:01:50.299Z,155
2018-02-01T08:03:00.240Z,160
2018-02-01T08:04:10.187Z,165
2018-02-01T08:05:20.028Z,165
2018-02-01T08:06:29.982Z,170
2018-02-01T08:07:40.063Z,170
2018-02-01T08:08:50.029Z,175
2018-02-01T08:09:59.749Z,175
2018-02-01T08:11:09.710Z,175
2018-02-01T08:12:19.874Z,175
2018-02-01T08:13:29.819Z,175
2018-02-01T08:14:39.766Z,175
2018-02-01T08:15:49.778Z,180
2018-02-01T08:16:59.749Z,185
2018-02-01T08:18:09.708Z,195
2018-02-01T08:19:19.654Z,205
2018-02-01T08:20:29.350Z,215
2018-02-01T08:21:39.302Z,225
2018-02-01T08:22:49.293Z,240
2018-02-01T08:23:58.487Z,245
2018-02-01T08:25:08.447Z,250
2018-02-01T08:26:17.900Z,250
2018-02-01T08:27:28.098Z,255
2018-02-01T08:28:38.114Z,260
2018-02-01T08:29:47.308Z,270
2018-02-01T08:30:57.001Z,275
2018-02-01T08:32:06.952Z,285
2018-02-01T08:33:16.906Z,290
2018-02-01T08:34:27.110Z,285
2018-02-01T08:35:37.056Z,285
2018-02-01T08:36:46.750Z,285
2018-02-01T08:37:56.434Z,285
2018-02-01T08:39:06.407Z,305
2018-02-01T08:40:16.351Z,315
2018-02-01T08:41:26.329Z,300
2018-02-01T08:42:36.099Z,310
2018-02-01T08:43:46.043Z,320
2018-02-01T08:44:56.037Z,350
2018-02-01T08:46:05.510Z,350
2018-02-01T08:47:15.258Z,325
2018-02-01T08:48:25.259Z,320
2018-02-01T08:49:35.252Z,325
2018-02-01T08:50:45.220Z,320
2018-02-01T08:51:54.478Z,330
2018-02-01T08:53:04.385Z,335
2018-02-01T08:54:14.357Z,340
2018-02-01T08:55:24.297Z,335
2018-02-01T08:56:33.987Z,350
2018-02-01T08:57:43.968Z,355
2018-02-01T08:58:53.670Z,365
2018-02-01T09:00:03.624Z,375
2018-02-01T09:01:13.585Z,375
2018-02-01T09:02:23.611Z,380
2018-02-01T09:03:33.307Z,380
2018-02-01T09:04:43.271Z,385
2018-02-01T09:05:53.215Z,380
2018-02-01T09:07:03.171Z,370
2018-02-01T09:08:12.611Z,375
2018-02-01T09:09:22.052Z,350
2018-02-01T09:10:32.012Z,355
2018-02-01T09:11:41.777Z,355
2018-02-01T09:12:51.232Z,340
2018-02-01T09:14:00.938Z,330
2018-02-01T09:15:10.894Z,335
2018-02-01T09:16:20.586Z,355
2018-02-01T09:17:30.549Z,420
2018-02-01T09:18:40.298Z,445
2018-02-01T09:19:50.381Z,425
2018-02-01T09:21:00.599Z,420
2018-02-01T09:22:10.794Z,425
2018-02-01T09:23:20.749Z,360
2018-02-01T09:24:30.454Z,320
2018-02-01T09:25:40.146Z,330
2018-02-01T09:26:49.877Z,350
2018-02-01T09:27:59.841Z,330
2018-02-01T09:29:09.789Z,330
2018-02-01T09:30:19.485Z,330
2018-02-01T09:31:29.426Z,355
2018-02-01T09:32:39.353Z,400
2018-02-01T09:33:49.094Z,450
2018-02-01T09:34:59.054Z,415
2018-02-01T09:36:09.049Z,420
2018-02-01T09:37:19.017Z,530
2018-02-01T09:38:28.770Z,595
2018-02-01T09:39:38.457Z,610
2018-02-01T09:40:48.172Z,605
2018-02-01T09:41:58.141Z,595
2018-02-01T09:43:08.124Z,710
2018-02-01T09:44:18.078Z,720
2018-02-01T09:45:28.035Z,1025
2018-02-01T09:46:37.990Z,1075
2018-02-01T09:47:47.440Z,850
2018-02-01T09:48:57.481Z,890
2018-02-01T09:50:07.451Z,1030
2018-02-01T09:51:17.414Z,1220
2018-02-01T09:52:27.406Z,1195
2018-02-01T09:53:37.383Z,1285
2018-02-01T09:54:47.096Z,885
2018-02-01T09:55:57.079Z,995
2018-02-01T09:57:07.082Z,1080
2018-02-01T09:58:16.531Z,910
2018-02-01T09:59:26.487Z,1085
2018-02-01T10:00:36.487Z,1165
2018-02-01T10:01:46.698Z,1220
2018-02-01T10:02:56.684Z,1095
2018-02-01T10:04:06.644Z,975
2018-02-01T10:05:16.616Z,910
2018-02-01T10:06:26.639Z,890
2018-02-01T10:07:36.327Z,890
2018-02-01T10:08:46.284Z,945
2018-02-01T10:09:55.767Z,930
2018-02-01T10:11:05.730Z,910
2018-02-01T10:12:15.744Z,945
2018-02-01T10:13:25.193Z,850
2018-02-01T10:14:34.669Z,790
2018-02-01T10:15:44.638Z,865
2018-02-01T10:16:54.333Z,800
2018-02-01T10:18:04.074Z,890
2018-02-01T10:19:14.048Z,775
2018-02-01T10:20:24.009Z,845
2018-02-01T10:21:33.965Z,765
2018-02-01T10:22:43.941Z,800
2018-02-01T10:23:53.904Z,830
2018-02-01T10:25:04.112Z,795
2018-02-01T10:26:14.076Z,1015
2018-02-01T10:27:24.053Z,1095
2018-02-01T10:28:33.752Z,975
2018-02-01T10:29:43.733Z,875
2018-02-01T10:30:53.203Z,1065
2018-02-01T10:32:02.913Z,1240
2018-02-01T10:33:12.926Z,1195
2018-02-01T10:34:22.889Z,1110
2018-02-01T10:35:32.570Z,1110
2018-02-01T10:36:42.261Z,1350
2018-02-01T10:37:51.971Z,1170
2018-02-01T10:39:01.984Z,1435
2018-02-01T10:40:11.978Z,1480
2018-02-01T10:41:22.016Z,1435
2018-02-01T10:42:31.766Z,1205
2018-02-01T10:43:41.769Z,935
2018-02-01T10:44:51.789Z,1090
2018-02-01T10:46:02.050Z,1185
2018-02-01T10:47:11.797Z,1070
2018-02-01T10:48:21.819Z,1165
2018-02-01T10:49:31.816Z,995
2018-02-01T10:50:42.027Z,1010
2018-02-01T10:51:51.775Z,1245
2018-02-01T10:53:01.771Z,1215
2018-02-01T10:54:11.866Z,1330
2018-02-01T10:55:21.876Z,1255
2018-02-01T10:56:31.904Z,1335
2018-02-01T10:57:41.908Z,1490
2018-02-01T10:58:51.965Z,1560
2018-02-01T11:00:02.059Z,1560
2018-02-01T11:01:12.125Z,1655
2018-02-01T11:02:22.128Z,1605
2018-02-01T11:03:32.120Z,1360
2018-02-01T11:04:42.114Z,1395
2018-02-01T11:05:51.845Z,1565
2018-02-01T11:07:01.588Z,1485
2018-02-01T11:08:11.567Z,1580
2018-02-01T11:09:21.316Z,1800
2018-02-01T11:10:31.048Z,1640
2018-02-01T11:11:41.093Z,1225
2018-02-01T11:12:50.837Z,1090
2018-02-01T11:14:00.564Z,1130
2018-02-01T11:15:10.323Z,1325
2018-02-01T11:16:19.543Z,1375
2018-02-01T11:17:28.774Z,1280
2018-02-01T11:18:38.519Z,1250
2018-02-01T11:19:48.502Z,1255
2018-02-01T11:20:58.508Z,810
2018-02-01T11:22:07.983Z,1220
2018-02-01T11:23:17.458Z,1035
2018-02-01T11:24:26.688Z,805
2018-02-01T11:25:36.685Z,1125
2018-02-01T11:26:46.423Z,1100
2018-02-01T11:27:56.414Z,980
2018-02-01T11:29:06.202Z,775
2018-02-01T11:30:15.947Z,855
2018-02-01T11:31:25.947Z,915
2018-02-01T11:32:35.932Z,855
2018-02-01T11:33:45.924Z,705
2018-02-01T11:34:55.912Z,725
2018-02-01T11:36:05.921Z,800
2018-02-01T11:37:15.936Z,760
2018-02-01T11:38:25.941Z,775
2018-02-01T11:39:35.692Z,675
2018-02-01T11:40:45.690Z,635
2018-02-01T11:41:55.445Z,675
2018-02-01T11:43:05.445Z,695
2018-02-01T11:44:15.454Z,750
2018-02-01T11:45:25.466Z,690
2018-02-01T11:46:35.202Z,710
2018-02-01T11:47:44.948Z,740
2018-02-01T11:48:54.963Z,635
2018-02-01T11:50:04.948Z,615
2018-02-01T11:51:15.141Z,595
2018-02-01T11:52:24.661Z,605
2018-02-01T11:53:34.431Z,650
2018-02-01T11:54:44.436Z,720
2018-02-01T11:55:54.424Z,880
2018-02-01T11:57:04.438Z,1145
2018-02-01T11:58:14.239Z,1545
2018-02-01T11:59:24.241Z,1310
2018-02-01T12:00:34.229Z,985
2018-02-01T12:01:43.973Z,630
2018-02-01T12:02:53.966Z,920
2018-02-01T12:04:03.702Z,770
2018-02-01T12:05:13.713Z,665
2018-02-01T12:06:23.716Z,735
2018-02-01T12:07:33.460Z,800
2018-02-01T12:08:43.469Z,755
2018-02-01T12:09:53.204Z,620
2018-02-01T12:11:03.228Z,585
2018-02-01T12:12:13.233Z,635
2018-02-01T12:13:23.279Z,625
2018-02-01T12:14:33.282Z,795
2018-02-01T12:15:43.262Z,1175
2018-02-01T12:16:53.002Z,1860
2018-02-01T12:18:02.755Z,2210
2018-02-01T12:19:12.762Z,2275
2018-02-01T12:20:22.805Z,2195
2018-02-01T12:21:32.777Z,2260
2018-02-01T12:22:42.474Z,2285
2018-02-01T12:23:52.185Z,2190
2018-02-01T12:25:02.170Z,2175
2018-02-01T12:26:11.358Z,2095
2018-02-01T12:27:21.357Z,2045
2018-02-01T12:28:31.335Z,2060
2018-02-01T12:29:41.297Z,2170
2018-02-01T12:30:51.273Z,2205
2018-02-01T12:32:01.028Z,2100
2018-02-01T12:33:10.471Z,2095
2018-02-01T12:34:20.440Z,2165
2018-02-01T12:35:30.412Z,2245
2018-02-01T12:36:40.361Z,2250
2018-02-01T12:37:50.317Z,2250
2018-02-01T12:39:00.348Z,2230
2018-02-01T12:40:10.349Z,2220
2018-02-01T12:41:20.322Z,2205
2018-02-01T12:42:32.684Z,2160
2018-02-01T12:44:46.057Z,2170
2018-02-01T12:46:15.305Z,2215
2018-02-01T12:47:25.016Z,2195
2018-02-01T12:48:34.982Z,2150
2018-02-01T12:49:44.948Z,2160
2018-02-01T12:50:54.420Z,2210
2018-02-01T12:52:04.390Z,2215
2018-02-01T12:53:14.360Z,2165
2018-02-01T12:54:24.299Z,2150
2018-02-01T12:55:34.279Z,2170
2018-02-01T12:56:44.265Z,2195
2018-02-01T12:57:53.966Z,2170
2018-02-01T12:59:03.718Z,2115
2018-02-01T13:00:13.682Z,1000
2018-02-01T13:01:23.447Z,2160
2018-02-01T13:02:33.450Z,2240
2018-02-01T13:03:43.409Z,2215
2018-02-01T13:04:53.107Z,2190
2018-02-01T13:06:02.810Z,1875
2018-02-01T13:07:12.789Z,1695
2018-02-01T13:08:22.481Z,2140
2018-02-01T13:09:32.879Z,2200
2018-02-01T13:10:42.908Z,2130
2018-02-01T13:11:52.400Z,2020
2018-02-01T13:13:02.097Z,2025
2018-02-01T13:14:12.073Z,1700
2018-02-01T13:15:21.796Z,1805
2018-02-01T13:16:31.761Z,1460
2018-02-01T13:17:41.732Z,1300
2018-02-01T13:18:51.440Z,2115
2018-02-01T13:20:01.478Z,2035
2018-02-01T13:21:11.453Z,1435
2018-02-01T13:22:21.158Z,1550
2018-02-01T13:23:30.939Z,2040
2018-02-01T13:24:40.983Z,2095
2018-02-01T13:25:50.985Z,2120
2018-02-01T13:27:00.730Z,2125
2018-02-01T13:28:10.720Z,2085
2018-02-01T13:29:20.471Z,2045
2018-02-01T13:30:30.223Z,2035
2018-02-01T13:31:39.958Z,1990
2018-02-01T13:32:49.951Z,2015
2018-02-01T13:33:59.702Z,1970
2018-02-01T13:35:09.724Z,1955
2018-02-01T13:36:19.709Z,1960
2018-02-01T13:37:29.698Z,2010
2018-02-01T13:38:39.703Z,1945
2018-02-01T13:39:49.686Z,1970
2018-02-01T13:40:59.744Z,1435
2018-02-01T13:42:09.761Z,1820
2018-02-01T13:43:19.756Z,1945
2018-02-01T13:44:29.758Z,1965
2018-02-01T13:45:39.794Z,1935
2018-02-01T13:46:49.790Z,1720
2018-02-01T13:47:59.583Z,1625
2018-02-01T13:49:09.822Z,1850
2018-02-01T13:50:19.829Z,1915
2018-02-01T13:51:29.827Z,1890
2018-02-01T13:52:39.845Z,1905
2018-02-01T13:53:49.851Z,1890
2018-02-01T13:54:59.590Z,720
2018-02-01T13:56:09.606Z,1710
2018-02-01T13:57:19.605Z,1740
2018-02-01T13:58:29.570Z,1785
2018-02-01T13:59:39.640Z,1520
2018-02-01T14:00:49.644Z,1620
2018-02-01T14:01:59.654Z,1680
2018-02-01T14:03:09.410Z,610
2018-02-01T14:04:19.414Z,365
2018-02-01T14:05:29.421Z,915
2018-02-01T14:06:39.196Z,1290
2018-02-01T14:07:49.204Z,1330
2018-02-01T14:08:59.202Z,875
2018-02-01T14:10:09.216Z,510
2018-02-01T14:11:18.952Z,690
2018-02-01T14:12:28.714Z,1490
2018-02-01T14:13:38.688Z,1435
2018-02-01T14:14:48.417Z,970
2018-02-01T14:15:58.471Z,840
2018-02-01T14:17:08.466Z,485
2018-02-01T14:18:18.290Z,450
2018-02-01T14:19:28.032Z,755
2018-02-01T14:20:38.041Z,1410
2018-02-01T14:21:48.069Z,1475
2018-02-01T14:22:58.352Z,1475
2018-02-01T14:24:08.091Z,1450
2018-02-01T14:25:18.104Z,1300
2018-02-01T14:26:28.112Z,415
2018-02-01T14:27:37.584Z,325
2018-02-01T14:28:47.583Z,345
2018-02-01T14:29:57.657Z,495
2018-02-01T14:31:07.708Z,1215
2018-02-01T14:32:17.705Z,810
2018-02-01T14:33:27.449Z,365
2018-02-01T14:34:37.230Z,370
2018-02-01T14:35:47.046Z,1100
2018-02-01T14:36:57.044Z,1140
2018-02-01T14:38:07.045Z,1150
2018-02-01T14:39:17.061Z,1150
2018-02-01T14:40:26.840Z,1135
2018-02-01T14:41:36.328Z,1120
2018-02-01T14:42:46.324Z,955
2018-02-01T14:43:56.047Z,985
2018-02-01T14:45:05.818Z,1030
2018-02-01T14:46:15.814Z,990
2018-02-01T14:47:25.829Z,835
2018-02-01T14:48:35.842Z,685
2018-02-01T14:49:45.845Z,890
2018-02-01T14:50:55.320Z,875
2018-02-01T14:52:05.317Z,850
2018-02-01T14:53:15.376Z,820
2018-02-01T14:54:25.380Z,795
2018-02-01T14:55:35.366Z,765
2018-02-01T14:56:45.384Z,735
2018-02-01T14:57:55.369Z,735
2018-02-01T14:59:05.368Z,690
2018-02-01T15:00:15.360Z,635
2018-02-01T15:01:24.830Z,610
2018-02-01T15:02:34.569Z,585
2018-02-01T15:03:44.303Z,525
2018-02-01T15:04:54.042Z,490
2018-02-01T15:06:04.055Z,475
2018-02-01T15:07:13.805Z,440
2018-02-01T15:08:23.529Z,335
2018-02-01T15:09:33.269Z,275
2018-02-01T15:10:43.289Z,330
2018-02-01T15:11:53.318Z,350
2018-02-01T15:13:03.316Z,370
2018-02-01T15:14:13.309Z,290
2018-02-01T15:15:23.321Z,205
2018-02-01T15:16:33.343Z,170
2018-02-01T15:17:43.358Z,165
2018-02-01T15:18:53.356Z,160
2018-02-01T15:20:03.345Z,150
2018-02-01T15:21:13.094Z,135
2018-02-01T15:22:23.089Z,125
2018-02-01T15:23:33.081Z,120
2018-02-01T15:24:42.831Z,115
2018-02-01T15:25:52.326Z,110
2018-02-01T15:27:02.320Z,105
2018-02-01T15:28:12.312Z,100
2018-02-01T15:29:21.781Z,95
2018-02-01T15:30:31.779Z,90
2018-02-01T15:31:41.244Z,80
2018-02-01T15:32:51.240Z,70
2018-02-01T15:34:01.218Z,65
2018-02-01T15:35:11.265Z,60
2018-02-01T15:36:21.285Z,55
2018-02-01T15:37:31.025Z,50
2018-02-01T15:38:41.286Z,45
2018-02-01T15:39:51.297Z,35
2018-02-01T15:41:00.787Z,30
2018-02-01T15:42:10.860Z,25
2018-02-01T15:43:20.614Z,20
2018-02-01T15:44:30.594Z,15
2018-02-01T15:45:40.340Z,15
2018-02-01T15:46:50.325Z,10
2018-02-01T15:48:00.313Z,10
2018-02-01T15:49:10.307Z,10
2018-02-01T15:50:20.307Z,10
2018-02-01T15:51:30.076Z,10
2018-02-01T15:52:40.057Z,5
2018-02-01T15:53:50.070Z,5
2018-02-01T15:55:00.074Z,5
2018-02-01T15:56:10.059Z,5
2018-02-01T15:57:20.064Z,5
2018-02-01T15:58:30.044Z,5
2018-02-01T15:59:40.054Z,5
2018-02-01T16:00:49.542Z,0
2018-02-01T16:01:59.240Z,0
2018-02-01T16:03:09.199Z,0
2018-02-01T16:04:19.173Z,0
2018-02-01T16:05:29.151Z,0
2018-02-01T16:06:39.101Z,0
2018-02-01T16:07:49.064Z,0
2018-02-01T16:08:59.030Z,0
2018-02-01T16:10:08.990Z,0
2018-02-01T16:11:18.733Z,0
2018-02-01T16:12:28.717Z,0
2018-02-01T16:13:38.677Z,0
2018-02-01T16:14:48.623Z,0
2018-02-01T16:15:58.587Z,0
2018-02-01T16:17:08.546Z,0
2018-02-01T16:18:18.242Z,0
2018-02-01T16:19:28.316Z,0
2018-02-01T16:20:38.680Z,0
2018-02-01T16:21:48.387Z,0
2018-02-01T16:22:58.372Z,0
2018-02-01T16:24:07.556Z,0
2018-02-01T16:25:17.580Z,0
2018-02-01T16:26:27.551Z,0
2018-02-01T16:27:36.990Z,0
2018-02-01T16:28:46.963Z,0
2018-02-01T16:29:56.393Z,0